Time;durP1;ratioP1;P1;durP2;ratioP2;P2;SDS_P1;SDS_P2;PMS_P1;PMS_P2;Temp;Humidity;BMP_temperature;BMP_pressure;BME280_temperature;BME280_humidity;BME280_pressure;Samples;Min_cycle;Max_cycle;Signal;HPM_P1;HPM_P2
2023/10/12 00:00:27;;;;;;;2.2;2;;;;;;;12.66;79.06445;940.8667;;;;
2023/10/12 00:02:33;;;;;;;4.5;2.4;;;;;;;12.77;79.05176;940.8497;;;;
2023/10/12 00:05:06;;;;;;;2.9;2.2;;;;;;;12.92;78.62012;940.8195;;;;
2023/10/12 00:07:33;;;;;;;3.2;2.2;;;;;;;13.02;78.34961;940.8315;;;;
2023/10/12 00:09:49;;;;;;;37.8;19.2;;;;;;;12.84;78.1582;940.8624;;;;
2023/10/12 00:12:14;;;;;;;15.5;8.1;;;;;;;12.68;78.59863;940.7742;;;;
2023/10/12 00:14:41;;;;;;;7.1;4.1;;;;;;;12.67;79.03125;940.8412;;;;
2023/10/12 00:17:07;;;;;;;5.1;3.2;;;;;;;12.54;79.55957;940.7539;;;;
2023/10/12 00:19:30;;;;;;;4.1;2.5;;;;;;;12.56;79.23145;940.7333;;;;
2023/10/12 00:22:00;;;;;;;2.7;2.1;;;;;;;12.64;78.93457;940.8043;;;;
2023/10/12 00:24:21;;;;;;;4;2;;;;;;;12.57;78.88867;940.7764;;;;
2023/10/12 00:26:46;;;;;;;2.4;2;;;;;;;12.53;78.9502;940.6364;;;;
2023/10/12 00:29:12;;;;;;;3.3;1.9;;;;;;;12.45;79.39355;940.6911;;;;
2023/10/12 00:31:40;;;;;;;3.7;2.3;;;;;;;12.47;79.58008;940.6832;;;;
2023/10/12 00:34:02;;;;;;;2.8;1.8;;;;;;;12.58;78.87891;940.755;;;;
2023/10/12 00:36:26;;;;;;;2.6;2;;;;;;;12.61;78.70215;940.7275;;;;
2023/10/12 00:38:56;;;;;;;3;2.2;;;;;;;12.6;78.34375;940.7224;;;;
2023/10/12 00:41:19;;;;;;;2.2;2;;;;;;;12.46;78.95996;940.6799;;;;
2023/10/12 00:43:44;;;;;;;3.7;2;;;;;;;12.4;79.20215;940.7233;;;;
2023/10/12 00:46:21;;;;;;;3.1;2.1;;;;;;;12.41;79.20508;940.6661;;;;
2023/10/12 00:48:39;;;;;;;3.4;2.2;;;;;;;12.35;79.31836;940.6279;;;;
2023/10/12 00:51:00;;;;;;;3.2;2;;;;;;;12.34;79.16797;940.6135;;;;
2023/10/12 00:53:33;;;;;;;2.5;1.7;;;;;;;12.28;79.47656;940.5803;;;;
2023/10/12 00:55:55;;;;;;;2.5;1.8;;;;;;;12.31;79.25391;940.5845;;;;
2023/10/12 00:58:22;;;;;;;2.8;1.9;;;;;;;12.27;79.48828;940.5786;;;;
2023/10/12 01:00:45;;;;;;;3.4;2.2;;;;;;;12.17;79.84668;940.5936;;;;
2023/10/12 01:03:27;;;;;;;3.5;2.1;;;;;;;12.18;79.73535;940.5873;;;;
2023/10/12 01:05:35;;;;;;;3.2;1.9;;;;;;;12.19;80.04688;940.6378;;;;
2023/10/12 01:07:59;;;;;;;2.9;2.1;;;;;;;12.31;79.5752;940.6228;;;;
2023/10/12 01:10:30;;;;;;;2.8;2;;;;;;;12.32;79.2793;940.6644;;;;
2023/10/12 01:12:50;;;;;;;3;2.1;;;;;;;12.41;78.7793;940.6011;;;;
2023/10/12 01:15:17;;;;;;;3.2;1.9;;;;;;;12.38;78.60059;940.6192;;;;
2023/10/12 01:17:44;;;;;;;2.6;1.8;;;;;;;12.23;79.66309;940.7086;;;;
2023/10/12 01:20:16;;;;;;;2.8;2;;;;;;;12.24;79.5625;940.6655;;;;
2023/10/12 01:22:32;;;;;;;3.2;1.8;;;;;;;12.25;79.65527;940.6464;;;;
2023/10/12 01:25:03;;;;;;;3.6;2;;;;;;;12.28;79.56836;940.6067;;;;
2023/10/12 01:27:23;;;;;;;3.2;1.8;;;;;;;12.1;79.86914;940.6922;;;;
2023/10/12 01:29:50;;;;;;;2.9;1.8;;;;;;;11.97;80.47461;940.6222;;;;
2023/10/12 01:32:27;;;;;;;2.4;1.8;;;;;;;12.04;80.28027;940.5289;;;;
2023/10/12 01:34:44;;;;;;;2.4;2;;;;;;;12.11;79.83496;940.5094;;;;
2023/10/12 01:37:11;;;;;;;3.8;1.9;;;;;;;12.08;79.85449;940.5372;;;;
2023/10/12 01:39:32;;;;;;;2.7;1.8;;;;;;;12.18;79.52734;940.545;;;;
2023/10/12 01:42:00;;;;;;;3.7;2.1;;;;;;;12;80.18359;940.49;;;;
2023/10/12 01:44:25;;;;;;;3.1;2;;;;;;;12.07;80.0459;940.5012;;;;
2023/10/12 01:46:50;;;;;;;3.4;2.1;;;;;;;12.02;80.53027;940.5144;;;;
2023/10/12 01:49:15;;;;;;;3.9;1.8;;;;;;;12.08;80.0498;940.5323;;;;
2023/10/12 01:51:45;;;;;;;2.2;1.8;;;;;;;12.02;80.00391;940.524;;;;
2023/10/12 01:54:11;;;;;;;2;1.8;;;;;;;12.06;79.71191;940.4988;;;;
2023/10/12 01:56:31;;;;;;;2.4;1.7;;;;;;;12.07;79.59766;940.4948;;;;
2023/10/12 01:58:59;;;;;;;2.8;1.9;;;;;;;12.13;79.28809;940.4744;;;;
2023/10/12 02:01:25;;;;;;;2.5;1.8;;;;;;;11.99;80.06543;940.4963;;;;
2023/10/12 02:03:54;;;;;;;5.5;2.6;;;;;;;11.99;80.35156;940.4947;;;;
2023/10/12 02:06:19;;;;;;;3.8;1.7;;;;;;;12.04;79.85742;940.5736;;;;
2023/10/12 02:08:45;;;;;;;3.8;2.2;;;;;;;11.79;80.46191;940.5574;;;;
2023/10/12 02:11:10;;;;;;;3.4;1.9;;;;;;;11.78;80.81738;940.675;;;;
2023/10/12 02:13:33;;;;;;;2.1;1.7;;;;;;;11.67;80.81055;940.5817;;;;
2023/10/12 02:16:01;;;;;;;2.9;1.9;;;;;;;11.8;80.57031;940.6014;;;;
2023/10/12 02:18:24;;;;;;;2.8;1.9;;;;;;;11.9;80.16309;940.5594;;;;
2023/10/12 02:21:07;;;;;;;2.3;1.6;;;;;;;11.93;80.82129;940.5389;;;;
2023/10/12 02:23:16;;;;;;;3.1;2.2;;;;;;;11.94;80.43555;940.5198;;;;
2023/10/12 02:25:50;;;;;;;3.3;2.2;;;;;;;11.96;79.82031;940.4769;;;;
2023/10/12 02:28:07;;;;;;;2.9;2;;;;;;;11.7;80.75781;940.6067;;;;
2023/10/12 02:30:35;;;;;;;2.9;1.9;;;;;;;11.68;81.15332;940.4892;;;;
2023/10/12 02:33:07;;;;;;;3.7;1.9;;;;;;;11.76;80.91504;940.5689;;;;
2023/10/12 02:35:25;;;;;;;1.9;1.7;;;;;;;11.7;80.91699;940.6713;;;;
2023/10/12 02:37:50;;;;;;;2.7;1.5;;;;;;;11.63;81.06348;940.6044;;;;
2023/10/12 02:40:16;;;;;;;3.6;1.8;;;;;;;11.68;81.08496;940.5833;;;;
2023/10/12 02:42:42;;;;;;;2.9;1.8;;;;;;;11.58;81.54688;940.5359;;;;
2023/10/12 02:45:16;;;;;;;2.4;1.8;;;;;;;11.68;81.15332;940.5825;;;;
2023/10/12 02:47:33;;;;;;;3;1.8;;;;;;;11.78;80.67969;940.6954;;;;
2023/10/12 02:50:01;;;;;;;2.2;1.9;;;;;;;11.79;80.42969;940.6333;;;;
2023/10/12 02:52:24;;;;;;;3.2;2;;;;;;;11.79;81.18555;940.5136;;;;
2023/10/12 02:54:55;;;;;;;3.4;1.7;;;;;;;11.83;80.5293;940.5573;;;;
2023/10/12 02:57:14;;;;;;;3.4;2;;;;;;;11.76;80.36621;940.4611;;;;
2023/10/12 02:59:40;;;;;;;3.2;2.1;;;;;;;11.73;80.5;940.5718;;;;
2023/10/12 03:02:18;;;;;;;3.9;1.9;;;;;;;11.68;80.74121;940.5211;;;;
2023/10/12 03:04:38;;;;;;;3;2.1;;;;;;;11.72;80.75;940.5876;;;;
2023/10/12 03:07:08;;;;;;;2.8;2.3;;;;;;;11.62;81.0957;940.5995;;;;
2023/10/12 03:09:26;;;;;;;5.1;2.3;;;;;;;11.58;81.31836;940.5797;;;;
2023/10/12 03:11:46;;;;;;;3.5;2.4;;;;;;;11.59;81.35449;940.5136;;;;
2023/10/12 03:14:16;;;;;;;2.3;1.8;;;;;;;11.61;81.00293;940.6359;;;;
2023/10/12 03:16:41;;;;;;;4.4;2.1;;;;;;;11.44;82.08203;940.5602;;;;
2023/10/12 03:19:17;;;;;;;3.1;2.1;;;;;;;11.4;82.64551;940.5442;;;;
2023/10/12 03:21:33;;;;;;;4;2.2;;;;;;;11.47;81.84668;940.6394;;;;
2023/10/12 03:23:57;;;;;;;2.8;1.8;;;;;;;11.54;81.5957;940.6495;;;;
2023/10/12 03:26:24;;;;;;;3.3;2;;;;;;;11.6;81.31055;940.7275;;;;
2023/10/12 03:28:46;;;;;;;2.6;1.9;;;;;;;11.75;80.66309;940.6916;;;;
2023/10/12 03:31:15;;;;;;;4;2.3;;;;;;;11.71;80.5293;940.7248;;;;
2023/10/12 03:33:35;;;;;;;2.2;1.9;;;;;;;11.62;80.64941;940.6562;;;;
2023/10/12 03:36:13;;;;;;;3.1;1.7;;;;;;;11.63;80.61719;940.7687;;;;
2023/10/12 03:38:25;;;;;;;2.3;1.9;;;;;;;11.59;80.67871;940.7872;;;;
2023/10/12 03:41:45;;;;;;;3.2;1.9;;;;;;;11.64;80.19727;940.7114;;;;
2023/10/12 03:43:25;;;;;;;3.9;1.9;;;;;;;11.51;80.7666;940.6644;;;;
2023/10/12 03:45:50;;;;;;;4.8;1.9;;;;;;;11.41;81.08008;940.6584;;;;
2023/10/12 03:48:21;;;;;;;2.4;1.7;;;;;;;11.49;80.97949;940.6355;;;;
2023/10/12 03:50:33;;;;;;;3.3;2.1;;;;;;;11.46;80.95313;940.6592;;;;
2023/10/12 03:52:59;;;;;;;3.5;2;;;;;;;11.29;81.62988;940.5647;;;;
2023/10/12 03:55:27;;;;;;;2.5;1.9;;;;;;;11.35;81.70898;940.6992;;;;
2023/10/12 03:57:51;;;;;;;2.9;1.8;;;;;;;11.36;81.54102;940.5606;;;;
2023/10/12 04:00:31;;;;;;;2.4;1.8;;;;;;;11.52;81.1709;940.5561;;;;
2023/10/12 04:02:58;;;;;;;6.5;3.3;;;;;;;11.63;80.62891;940.5597;;;;
2023/10/12 04:05:35;;;;;;;4.1;2.1;;;;;;;11.61;80.6709;940.5425;;;;
2023/10/12 04:08:00;;;;;;;2.4;1.8;;;;;;;11.48;81.1377;940.4767;;;;
2023/10/12 04:11:01;;;;;;;3.5;2.6;;;;;;;11.21;82.36914;940.4559;;;;
2023/10/12 04:12:54;;;;;;;3.3;2.1;;;;;;;11.3;82.23828;940.4747;;;;
2023/10/12 04:15:26;;;;;;;3.5;2.2;;;;;;;11.32;82.12695;940.4789;;;;
2023/10/12 04:17:48;;;;;;;4;2.7;;;;;;;11.29;82.25879;940.4786;;;;
2023/10/12 04:20:14;;;;;;;3.2;2.1;;;;;;;11.29;82.31641;940.4364;;;;
2023/10/12 04:22:26;;;;;;;2.6;2;;;;;;;11.31;82.2168;940.3975;;;;
2023/10/12 04:24:48;;;;;;;2.1;1.9;;;;;;;11.25;82.45801;940.4249;;;;
2023/10/12 04:27:24;;;;;;;4.6;2.1;;;;;;;11.28;82.39453;940.4203;;;;
2023/10/12 04:29:39;;;;;;;2.5;1.8;;;;;;;11.37;81.91992;940.4133;;;;
2023/10/12 04:32:15;;;;;;;2.8;2.1;;;;;;;11.3;81.88379;940.3855;;;;
2023/10/12 04:34:27;;;;;;;3.8;2.1;;;;;;;11.39;81.58984;940.3353;;;;
2023/10/12 04:37:08;;;;;;;4.1;2;;;;;;;11.32;81.85254;940.4342;;;;
2023/10/12 04:39:24;;;;;;;2.8;2;;;;;;;11.13;82.49316;940.4289;;;;
2023/10/12 04:42:01;;;;;;;3.3;2.1;;;;;;;11.1;82.9209;940.4548;;;;
2023/10/12 04:46:47;;;;;;;3.1;2.2;;;;;;;11.04;83.33105;940.4445;;;;
2023/10/12 04:49:38;;;;;;;2.2;1.9;;;;;;;11.14;82.67773;940.4816;;;;
2023/10/12 04:51:30;;;;;;;3.2;2;;;;;;;11.24;82.13477;940.5084;;;;
2023/10/12 04:53:57;;;;;;;4.3;2.1;;;;;;;11.18;82.17969;940.4461;;;;
2023/10/12 04:56:18;;;;;;;4;2.2;;;;;;;11.2;82.12598;940.4167;;;;
2023/10/12 04:58:56;;;;;;;3.2;1.9;;;;;;;11.38;80.91504;940.4883;;;;
2023/10/12 05:01:20;;;;;;;3.6;1.9;;;;;;;11.35;81.12598;940.3898;;;;
2023/10/12 05:03:35;;;;;;;4.1;2.1;;;;;;;11.42;80.78418;940.3917;;;;
2023/10/12 05:06:08;;;;;;;2.5;2;;;;;;;11.45;80.91504;940.3465;;;;
2023/10/12 05:08:27;;;;;;;2.5;1.8;;;;;;;11.52;80.31055;940.4061;;;;
2023/10/12 05:10:50;;;;;;;2.3;2.1;;;;;;;11.55;80.22559;940.4264;;;;
2023/10/12 05:13:23;;;;;;;5.2;2.8;;;;;;;11.41;80.98828;940.4075;;;;
2023/10/12 05:15:42;;;;;;;2.6;2.2;;;;;;;11.22;81.70801;940.3209;;;;
2023/10/12 05:18:10;;;;;;;2.5;2.1;;;;;;;11.18;82.0332;940.38;;;;
2023/10/12 05:20:35;;;;;;;2.4;2.1;;;;;;;11.29;81.75586;940.4133;;;;
2023/10/12 05:23:02;;;;;;;5.1;2.8;;;;;;;11.3;81.7002;940.3783;;;;
2023/10/12 05:25:32;;;;;;;3.8;2.5;;;;;;;11.28;81.67383;940.3589;;;;
2023/10/12 05:28:08;;;;;;;4;2.3;;;;;;;11.2;81.9082;940.3076;;;;
2023/10/12 05:30:20;;;;;;;3.8;2.1;;;;;;;11.15;82.2998;940.3605;;;;
2023/10/12 05:32:43;;;;;;;4.1;2.4;;;;;;;11.06;82.69629;940.307;;;;
2023/10/12 05:35:15;;;;;;;4.9;3;;;;;;;11.16;82.45215;940.4124;;;;
2023/10/12 05:37:38;;;;;;;4.8;2.8;;;;;;;11.27;82.01563;940.4656;;;;
2023/10/12 05:39:59;;;;;;;4;2.9;;;;;;;11.25;82.03516;940.5731;;;;
2023/10/12 05:42:23;;;;;;;5.1;2.4;;;;;;;11.1;82.67871;940.5631;;;;
2023/10/12 05:44:48;;;;;;;3.6;2.3;;;;;;;11.04;83.05664;940.5633;;;;
2023/10/12 05:47:13;;;;;;;2.4;2;;;;;;;11.13;82.61719;940.5444;;;;
2023/10/12 05:49:40;;;;;;;3.8;2.2;;;;;;;11.26;82.11523;940.5636;;;;
2023/10/12 05:52:05;;;;;;;3.3;2.5;;;;;;;11.21;82.2207;940.5883;;;;
2023/10/12 05:54:31;;;;;;;3.8;2.3;;;;;;;11.08;82.68652;940.6275;;;;
2023/10/12 05:56:56;;;;;;;6.1;2.5;;;;;;;11.19;83.0957;940.6127;;;;
2023/10/12 05:59:22;;;;;;;3.7;2.3;;;;;;;11.33;82.51758;940.6942;;;;
2023/10/12 06:01:48;;;;;;;3.4;2;;;;;;;11.45;81.6709;940.6511;;;;
2023/10/12 06:04:14;;;;;;;4.9;3.2;;;;;;;11.49;81.04785;940.6738;;;;
2023/10/12 06:06:41;;;;;;;7;3.9;;;;;;;11.58;80.92871;940.7416;;;;
2023/10/12 06:09:04;;;;;;;7.8;4.4;;;;;;;11.66;80.39355;940.7491;;;;
2023/10/12 06:11:29;;;;;;;10.5;6;;;;;;;11.68;80.44434;940.7389;;;;
2023/10/12 06:13:54;;;;;;;11.7;6;;;;;;;11.59;80.81641;940.7481;;;;
2023/10/12 06:16:20;;;;;;;9.6;5.4;;;;;;;11.69;80.65039;940.8076;;;;
2023/10/12 06:18:49;;;;;;;7.9;4.3;;;;;;;11.74;80.24805;940.8168;;;;
2023/10/12 06:21:17;;;;;;;10.3;3.7;;;;;;;11.62;80.84473;940.8212;;;;
2023/10/12 06:23:39;;;;;;;5.2;3.2;;;;;;;11.62;81.22363;940.842;;;;
2023/10/12 06:26:09;;;;;;;6.2;3.2;;;;;;;11.64;80.57422;940.926;;;;
2023/10/12 06:28:30;;;;;;;5;3;;;;;;;11.77;80.4834;940.9966;;;;
2023/10/12 06:30:57;;;;;;;6.8;3.2;;;;;;;11.85;80.17969;940.9836;;;;
2023/10/12 06:33:22;;;;;;;4.2;2.9;;;;;;;11.88;80.03418;940.9807;;;;
2023/10/12 06:36:00;;;;;;;4.8;2.9;;;;;;;11.97;80.52246;941.0333;;;;
2023/10/12 06:38:22;;;;;;;4.3;3.2;;;;;;;12.12;79.35742;941.0244;;;;
2023/10/12 06:40:47;;;;;;;10;6;;;;;;;12.29;77.7832;941.0203;;;;
2023/10/12 06:45:30;;;;;;;6.6;3.3;;;;;;;12.6;77.40137;940.9755;;;;
2023/10/12 06:48:21;;;;;;;7.3;4.7;;;;;;;12.84;76.56055;941.0901;;;;
2023/10/12 06:50:24;;;;;;;7.2;4.4;;;;;;;12.87;76.62402;941.0734;;;;
2023/10/12 06:52:45;;;;;;;4.7;2.9;;;;;;;12.91;76.2959;941.1057;;;;
2023/10/12 06:55:21;;;;;;;5.7;3.5;;;;;;;13.07;75.94922;941.1035;;;;
2023/10/12 06:57:43;;;;;;;4.9;2.8;;;;;;;13.08;75.70801;941.07;;;;
2023/10/12 07:00:17;;;;;;;3;2.1;;;;;;;12.81;75.72949;940.9889;;;;
2023/10/12 07:02:27;;;;;;;3.6;2.1;;;;;;;12.85;76.4375;941.0837;;;;
2023/10/12 07:04:55;;;;;;;4.5;2.6;;;;;;;13.17;76.26172;941.0783;;;;
2023/10/12 07:07:16;;;;;;;4.9;2.6;;;;;;;13.51;75.0918;941.1362;;;;
2023/10/12 07:09:46;;;;;;;4.5;2.3;;;;;;;13.79;73.87598;941.0708;;;;
2023/10/12 07:12:09;;;;;;;3.7;2.2;;;;;;;13.96;72.08594;941.1625;;;;
2023/10/12 07:14:38;;;;;;;2.7;1.9;;;;;;;14.04;71.87012;941.2029;;;;
2023/10/12 07:17:07;;;;;;;4.7;2.3;;;;;;;14.04;70.91309;941.1749;;;;
2023/10/12 07:19:27;;;;;;;2.2;1.7;;;;;;;14.3;69.64355;941.1785;;;;
2023/10/12 07:21:55;;;;;;;2.8;1.9;;;;;;;14.69;67.12402;941.2086;;;;
2023/10/12 07:24:19;;;;;;;3;1.7;;;;;;;14.81;66.8877;941.178;;;;
2023/10/12 07:26:48;;;;;;;3.9;1.9;;;;;;;14.88;66.65625;941.2029;;;;
2023/10/12 07:29:19;;;;;;;3.7;2;;;;;;;15.02;65.56934;941.1941;;;;
2023/10/12 07:31:48;;;;;;;3.1;1.9;;;;;;;15;66.6875;941.092;;;;
2023/10/12 07:34:13;;;;;;;3.1;1.8;;;;;;;15.32;67.09277;941.1178;;;;
2023/10/12 07:36:44;;;;;;;3.4;2.1;;;;;;;15.71;65.50098;941.153;;;;
2023/10/12 07:39:14;;;;;;;3.4;1.7;;;;;;;15.85;62.71387;941.2319;;;;
2023/10/12 07:41:28;;;;;;;3.1;2;;;;;;;15.97;64.4873;941.2617;;;;
2023/10/12 07:43:43;;;;;;;4.4;2.6;;;;;;;16.16;64.31934;941.1312;;;;
2023/10/12 07:46:24;;;;;;;3.7;2.3;;;;;;;16.5;63.47852;941.1894;;;;
2023/10/12 07:48:42;;;;;;;5.7;2.1;;;;;;;16.8;61.86523;941.2242;;;;
2023/10/12 07:51:15;;;;;;;3.6;2.2;;;;;;;16.92;61.10645;941.1742;;;;
2023/10/12 07:53:27;;;;;;;4.9;3;;;;;;;17.05;60.65918;941.2199;;;;
2023/10/12 07:55:53;;;;;;;5.3;3.3;;;;;;;17.42;59.8418;941.192;;;;
2023/10/12 07:58:18;;;;;;;3.1;1.9;;;;;;;17.6;58.27539;941.2301;;;;
2023/10/12 08:00:59;;;;;;;2.4;1.7;;;;;;;17.87;58.58984;941.2299;;;;
2023/10/12 08:03:39;;;;;;;3.9;1.9;;;;;;;18.16;56.44434;941.2364;;;;
2023/10/12 08:05:56;;;;;;;1.9;1.6;;;;;;;18.23;56.11621;941.2073;;;;
2023/10/12 08:08:08;;;;;;;4.7;1.7;;;;;;;18.4;55.89355;941.1757;;;;
2023/10/12 08:10:56;;;;;;;2.1;1.6;;;;;;;18.64;57.18066;941.1331;;;;
2023/10/12 08:12:49;;;;;;;2.4;1.6;;;;;;;18.8;56.7832;941.207;;;;
2023/10/12 08:15:17;;;;;;;1.8;1.4;;;;;;;18.73;53.00391;941.1501;;;;
2023/10/12 08:17:45;;;;;;;3.1;1.8;;;;;;;18.85;53.91504;941.1241;;;;
2023/10/12 08:20:53;;;;;;;2.5;1.4;;;;;;;19.32;52.65527;941.074;;;;
2023/10/12 08:22:32;;;;;;;2.8;1.6;;;;;;;19.64;53.18457;941.0884;;;;
2023/10/12 08:25:04;;;;;;;3.4;1.7;;;;;;;20.06;50.59668;941.0192;;;;
2023/10/12 08:27:24;;;;;;;3.1;1.5;;;;;;;20.49;48.73145;941.0197;;;;
2023/10/12 08:30:48;;;;;;;1.9;1.5;;;;;;;20.15;48.78613;941.0681;;;;
2023/10/12 08:32:27;;;;;;;4.3;1.6;;;;;;;20.04;48.89063;941.0084;;;;
2023/10/12 08:35:36;;;;;;;3.4;1.6;;;;;;;19.96;48.91699;940.9921;;;;
2023/10/12 08:37:19;;;;;;;2.8;1.5;;;;;;;20.08;49.92188;940.9955;;;;
2023/10/12 08:39:37;;;;;;;3.3;1.7;;;;;;;20.04;49.01953;940.9736;;;;
2023/10/12 08:42:19;;;;;;;2.3;1.3;;;;;;;20.12;47.87305;940.9604;;;;
2023/10/12 08:44:21;;;;;;;1.8;1.6;;;;;;;20.32;48.20996;940.867;;;;
2023/10/12 08:46:56;;;;;;;2;1.3;;;;;;;20.64;48.58301;940.9436;;;;
2023/10/12 08:51:59;;;;;;;3.1;1.6;;;;;;;21.08;45.48535;940.8387;;;;
2023/10/12 08:54:08;;;;;;;2.8;1.8;;;;;;;21.11;47.30176;940.8405;;;;
2023/10/12 08:56:35;;;;;;;3.1;1.7;;;;;;;21.32;46.25879;940.8005;;;;
2023/10/12 08:59:00;;;;;;;2;1.4;;;;;;;21.17;45.86914;940.752;;;;
2023/10/12 09:01:31;;;;;;;2.2;1.5;;;;;;;21.19;45.71777;940.6803;;;;
2023/10/12 09:03:53;;;;;;;2.7;1.3;;;;;;;21.33;45.79199;940.6664;;;;
2023/10/12 09:06:29;;;;;;;3.2;1.6;;;;;;;21.71;47.19043;940.6714;;;;
2023/10/12 09:08:41;;;;;;;1.9;1.4;;;;;;;22.12;43.85742;940.7141;;;;
2023/10/12 09:11:13;;;;;;;3;1.5;;;;;;;22.09;42.74121;940.7022;;;;
2023/10/12 09:13:28;;;;;;;3.1;1.6;;;;;;;22.32;43.38477;940.6918;;;;
2023/10/12 09:15:55;;;;;;;2.5;1.4;;;;;;;22.52;44.31934;940.6907;;;;
2023/10/12 09:18:19;;;;;;;3.1;1.6;;;;;;;22.78;42.33691;940.6724;;;;
2023/10/12 09:20:58;;;;;;;6.7;3.1;;;;;;;22.85;43.14258;940.7089;;;;
2023/10/12 09:23:13;;;;;;;2.7;1.5;;;;;;;22.95;43;940.6996;;;;
2023/10/12 09:26:11;;;;;;;7.7;3.5;;;;;;;23.08;44.32813;940.6834;;;;
2023/10/12 09:27:59;;;;;;;24;10;;;;;;;23.13;47.57617;940.5776;;;;
2023/10/12 09:30:26;;;;;;;5;3.1;;;;;;;23.01;44.66211;940.4653;;;;
2023/10/12 09:33:06;;;;;;;2;1.4;;;;;;;22.98;45.61035;940.4388;;;;
2023/10/12 09:35:25;;;;;;;4.4;2.1;;;;;;;22.85;46.03223;940.4878;;;;
2023/10/12 09:37:51;;;;;;;2.8;1.6;;;;;;;22.92;45.83789;940.4361;;;;
2023/10/12 09:40:24;;;;;;;2.9;1.7;;;;;;;22.82;44.1377;940.4246;;;;
2023/10/12 09:42:35;;;;;;;1.5;1.2;;;;;;;22.7;44.79492;940.366;;;;
2023/10/12 09:45:10;;;;;;;2.8;1.5;;;;;;;22.8;45.49707;940.3511;;;;
2023/10/12 09:47:26;;;;;;;2.4;1.4;;;;;;;22.91;46.625;940.3211;;;;
2023/10/12 09:49:54;;;;;;;3.2;1.9;;;;;;;22.78;46.70605;940.2769;;;;
2023/10/12 09:52:17;;;;;;;4;1.7;;;;;;;22.89;46.57617;940.2509;;;;
2023/10/12 09:54:45;;;;;;;2.3;1.9;;;;;;;22.76;45.34082;940.2339;;;;
2023/10/12 09:57:16;;;;;;;2.2;1.5;;;;;;;22.86;43.48438;940.2099;;;;
2023/10/12 09:59:35;;;;;;;2.3;1.3;;;;;;;22.85;44.36328;940.2534;;;;
2023/10/12 10:02:02;;;;;;;1.8;1.2;;;;;;;23.04;43.60742;940.1836;;;;
2023/10/12 10:04:34;;;;;;;2.6;1.5;;;;;;;22.82;43.44434;940.2037;;;;
2023/10/12 10:06:51;;;;;;;2;1.6;;;;;;;22.92;42.44434;940.2289;;;;
2023/10/12 10:09:19;;;;;;;2.3;1.5;;;;;;;23.01;43.00586;940.2062;;;;
2023/10/12 10:11:37;;;;;;;2.2;1.6;;;;;;;23.29;44.36035;940.2327;;;;
2023/10/12 10:14:03;;;;;;;3.2;2;;;;;;;23.5;43.87598;940.1827;;;;
2023/10/12 10:16:37;;;;;;;3.9;1.7;;;;;;;23.62;44.19434;940.1336;;;;
2023/10/12 10:19:10;;;;;;;3;1.5;;;;;;;23.86;43.72363;940.0876;;;;
2023/10/12 10:21:22;;;;;;;2.6;1.6;;;;;;;24.12;42.18262;939.9914;;;;
2023/10/12 10:23:49;;;;;;;4.1;1.7;;;;;;;24.37;39.57813;940.0046;;;;
2023/10/12 10:26:16;;;;;;;2.9;1.5;;;;;;;24.47;40.69531;939.9709;;;;
2023/10/12 10:28:34;;;;;;;3.4;2;;;;;;;24.7;41.77637;939.9353;;;;
2023/10/12 10:30:59;;;;;;;2.7;1.7;;;;;;;24.76;40.16699;939.9205;;;;
2023/10/12 10:33:24;;;;;;;2.4;1.5;;;;;;;24.48;38.8457;939.8693;;;;
2023/10/12 10:35:48;;;;;;;2.3;1.5;;;;;;;24.62;39.96582;939.8716;;;;
2023/10/12 10:38:17;;;;;;;3.3;1.6;;;;;;;24.88;40.0957;939.8219;;;;
2023/10/12 10:40:47;;;;;;;3.4;1.5;;;;;;;25.02;40.32129;939.8028;;;;
2023/10/12 10:43:08;;;;;;;1.6;1.4;;;;;;;25.08;40.49121;939.7699;;;;
2023/10/12 10:45:36;;;;;;;3.2;1.6;;;;;;;25.12;40.21094;939.6841;;;;
2023/10/12 10:47:58;;;;;;;5.6;2.3;;;;;;;25.16;39.4707;939.7034;;;;
2023/10/12 10:50:26;;;;;;;3.5;1.4;;;;;;;25.33;39.92383;939.6652;;;;
2023/10/12 10:52:59;;;;;;;1.8;1.5;;;;;;;25.63;39.19434;939.6739;;;;
2023/10/12 10:55:24;;;;;;;3.3;1.8;;;;;;;25.76;38.23633;939.7145;;;;
2023/10/12 10:57:41;;;;;;;2.2;1.3;;;;;;;25.68;38.11133;939.6881;;;;
2023/10/12 11:00:16;;;;;;;1.9;1.4;;;;;;;25.85;38.33789;939.6208;;;;
2023/10/12 11:02:36;;;;;;;2.2;1.5;;;;;;;26.16;39.32324;939.6117;;;;
2023/10/12 11:05:09;;;;;;;2.7;1.4;;;;;;;26.45;38.10547;939.539;;;;
2023/10/12 11:07:27;;;;;;;2;1.6;;;;;;;26.59;37.04102;939.5708;;;;
2023/10/12 11:10:09;;;;;;;1.6;1.2;;;;;;;26.57;38.67285;939.3995;;;;
2023/10/12 11:12:20;;;;;;;2.2;1.4;;;;;;;26.28;40.89551;939.4796;;;;
2023/10/12 11:14:52;;;;;;;3.7;1.6;;;;;;;26.01;39.9248;939.3641;;;;
2023/10/12 11:17:08;;;;;;;2;1.2;;;;;;;26.23;39.8623;939.4224;;;;
2023/10/12 11:19:34;;;;;;;2.2;1.6;;;;;;;26.67;38.2666;939.3989;;;;
2023/10/12 11:21:59;;;;;;;2.4;1.4;;;;;;;27;37.3584;939.3323;;;;
2023/10/12 11:24:26;;;;;;;3.7;1.7;;;;;;;27.28;36.18359;939.2886;;;;
2023/10/12 11:26:55;;;;;;;1.9;1.4;;;;;;;27.6;37.12305;939.2878;;;;
2023/10/12 11:29:20;;;;;;;17.9;3;;;;;;;27.8;34.78906;939.2686;;;;
2023/10/12 11:31:48;;;;;;;1.2;1.1;;;;;;;28.06;34.03711;939.242;;;;
2023/10/12 11:34:13;;;;;;;3;1.1;;;;;;;28.35;30.2666;939.0733;;;;
2023/10/12 11:36:38;;;;;;;2.2;1.2;;;;;;;28.47;28.38379;939.0539;;;;
2023/10/12 11:39:04;;;;;;;1.4;1.3;;;;;;;28.71;30.08887;938.9872;;;;
2023/10/12 11:41:28;;;;;;;2.4;1.3;;;;;;;28.7;29.06445;938.902;;;;
2023/10/12 11:43:57;;;;;;;2;1.1;;;;;;;28.73;28.79297;938.9658;;;;
2023/10/12 11:46:23;;;;;;;1.8;1.1;;;;;;;28.77;27.90332;938.7842;;;;
2023/10/12 11:48:48;;;;;;;1.8;1.2;;;;;;;28.62;28.22656;938.8853;;;;
2023/10/12 11:51:13;;;;;;;1.3;1.1;;;;;;;28.48;26.21973;938.7912;;;;
2023/10/12 11:53:41;;;;;;;2.5;1.7;;;;;;;28.29;27.79004;938.7656;;;;
2023/10/12 11:56:08;;;;;;;1.4;1.1;;;;;;;28.55;26.28418;938.7932;;;;
2023/10/12 11:58:34;;;;;;;1.1;1;;;;;;;29.08;27.26758;938.796;;;;
2023/10/12 12:01:12;;;;;;;3.5;1.4;;;;;;;29.27;25.94434;938.8876;;;;
2023/10/12 12:03:39;;;;;;;1.4;1.1;;;;;;;29.77;28.3584;938.8356;;;;
2023/10/12 12:06:02;;;;;;;1.3;1.1;;;;;;;29.75;24.43359;938.8025;;;;
2023/10/12 12:08:26;;;;;;;2;1.1;;;;;;;29.53;24.80371;938.7357;;;;
2023/10/12 12:10:56;;;;;;;1.9;1.4;;;;;;;29.51;24.98145;938.7869;;;;
2023/10/12 12:13:20;;;;;;;1.2;1.1;;;;;;;29.45;22.96387;938.7803;;;;
2023/10/12 12:15:43;;;;;;;1.2;0.9;;;;;;;29.25;23.03711;938.7341;;;;
2023/10/12 12:18:14;;;;;;;1.9;1.3;;;;;;;29.49;23.00098;938.7235;;;;
2023/10/12 12:20:39;;;;;;;1.2;1.1;;;;;;;29.31;22.12207;938.7214;;;;
2023/10/12 12:23:03;;;;;;;1.1;1;;;;;;;29.36;21.74414;938.704;;;;
2023/10/12 12:25:31;;;;;;;2.4;1.4;;;;;;;29.41;23.41406;938.6671;;;;
2023/10/12 12:27:50;;;;;;;1;0.9;;;;;;;28.96;23.6416;938.593;;;;
2023/10/12 12:30:22;;;;;;;1.9;1.5;;;;;;;28.97;23.11816;938.6252;;;;
2023/10/12 12:32:39;;;;;;;1.6;1.2;;;;;;;29.16;22.66309;938.6072;;;;
2023/10/12 12:35:08;;;;;;;1.3;1.2;;;;;;;29.33;24.33984;938.5353;;;;
2023/10/12 12:37:37;;;;;;;1.8;1.2;;;;;;;29.25;24.4541;938.5936;;;;
2023/10/12 12:40:27;;;;;;;1.9;1.3;;;;;;;29.26;24.72852;938.6763;;;;
2023/10/12 12:42:23;;;;;;;1.4;1;;;;;;;29.29;22.41992;938.6035;;;;
2023/10/12 12:44:48;;;;;;;1.8;1.2;;;;;;;29.2;23.68945;938.6303;;;;
2023/10/12 12:47:16;;;;;;;2.2;1.1;;;;;;;29.21;23.4043;938.5795;;;;
2023/10/12 12:49:42;;;;;;;1.6;1.1;;;;;;;29.45;23.10645;938.5981;;;;
2023/10/12 12:52:09;;;;;;;1;1;;;;;;;29.88;24.57227;938.715;;;;
2023/10/12 12:54:35;;;;;;;1.6;1.1;;;;;;;30.07;22.50586;938.679;;;;
2023/10/12 12:56:57;;;;;;;1.5;1.2;;;;;;;29.66;22.58105;938.7029;;;;
2023/10/12 12:59:24;;;;;;;1.6;1.2;;;;;;;29.7;21.43848;938.6682;;;;
2023/10/12 13:01:47;;;;;;;2.2;1.2;;;;;;;29.77;22.27637;938.6409;;;;
2023/10/12 13:04:14;;;;;;;1.7;1.2;;;;;;;30.29;23.92578;938.6309;;;;
2023/10/12 13:06:38;;;;;;;1.8;1.3;;;;;;;30.55;22.79297;938.5502;;;;
2023/10/12 13:09:04;;;;;;;2.6;1.3;;;;;;;30.21;23.18164;938.6591;;;;
2023/10/12 13:11:28;;;;;;;1.5;1.2;;;;;;;30.45;23.58789;938.6906;;;;
2023/10/12 13:13:54;;;;;;;1.2;1;;;;;;;29.96;24.58887;938.7445;;;;
2023/10/12 13:16:19;;;;;;;1.2;1;;;;;;;29.72;22.97754;938.6041;;;;
2023/10/12 13:18:46;;;;;;;3;1.3;;;;;;;29.63;25.32129;938.7312;;;;
2023/10/12 13:21:14;;;;;;;1.2;1.1;;;;;;;29.4;24.06934;938.6778;;;;
2023/10/12 13:23:35;;;;;;;2.3;1.2;;;;;;;29.39;25.18848;938.7271;;;;
2023/10/12 13:26:02;;;;;;;1.9;1.3;;;;;;;29.04;25.15723;938.9278;;;;
2023/10/12 13:28:27;;;;;;;1.3;1.1;;;;;;;28.89;25.81543;938.8444;;;;
2023/10/12 13:30:53;;;;;;;8;1.7;;;;;;;28.83;25.77637;938.7327;;;;
2023/10/12 13:33:21;;;;;;;1.9;1.3;;;;;;;28.69;26.17285;938.7564;;;;
2023/10/12 13:35:45;;;;;;;1.2;1.1;;;;;;;28.52;23.46387;938.7353;;;;
2023/10/12 13:38:09;;;;;;;2.5;1.2;;;;;;;28.69;26.3877;938.6301;;;;
2023/10/12 13:40:34;;;;;;;1.5;1;;;;;;;28.88;23.55371;938.5627;;;;
2023/10/12 13:43:07;;;;;;;1.9;1.2;;;;;;;28.85;26.38477;938.6389;;;;
2023/10/12 13:45:28;;;;;;;1.3;1.1;;;;;;;29.02;24.68066;938.6581;;;;
2023/10/12 13:47:51;;;;;;;2;1.3;;;;;;;28.95;23.89063;938.6277;;;;
2023/10/12 13:50:18;;;;;;;2.4;1.1;;;;;;;29.42;23.93945;938.5971;;;;
2023/10/12 13:52:42;;;;;;;1.1;1;;;;;;;29.32;24.98242;938.7155;;;;
2023/10/12 13:55:13;;;;;;;1.2;1.1;;;;;;;29.34;23.76758;938.7417;;;;
2023/10/12 13:57:36;;;;;;;1.4;0.9;;;;;;;29.7;23.0957;938.717;;;;
2023/10/12 14:00:04;;;;;;;2.1;1;;;;;;;31.28;22.13574;938.7484;;;;
2023/10/12 14:02:27;;;;;;;1.8;1.4;;;;;;;32.51;22.29199;938.6461;;;;
2023/10/12 14:04:54;;;;;;;1.5;1.4;;;;;;;32.15;21.8418;938.6625;;;;
2023/10/12 14:07:18;;;;;;;2.4;1.5;;;;;;;32.22;21.96582;938.6096;;;;
2023/10/12 14:09:44;;;;;;;2.3;1.5;;;;;;;31.63;22.45215;938.5714;;;;
2023/10/12 14:12:10;;;;;;;1.8;1.2;;;;;;;31.98;20.16797;938.5889;;;;
2023/10/12 14:14:35;;;;;;;2.1;1.3;;;;;;;31.28;20.99902;938.5847;;;;
2023/10/12 14:17:04;;;;;;;3.4;1.2;;;;;;;31.18;21.46094;938.634;;;;
2023/10/12 14:19:26;;;;;;;1.3;1.2;;;;;;;30.45;21.96289;938.4993;;;;
2023/10/12 14:21:52;;;;;;;1.6;1.2;;;;;;;29.47;21.93945;938.5463;;;;
2023/10/12 14:24:17;;;;;;;2.6;1.4;;;;;;;28.93;24.30566;938.6254;;;;